Time;durP1;ratioP1;P1;durP2;ratioP2;P2;SDS_P1;SDS_P2;PMS_P1;PMS_P2;Temp;Humidity;BMP_temperature;BMP_pressure;BME280_temperature;BME280_humidity;BME280_pressure;Samples;Min_cycle;Max_cycle;Signal;HPM_P1;HPM_P2
2021/10/22 00:01:58;;;;;;;1.47;1.37;;;;;;;21.23;67.64;97282.38;5018324;28;20652;-64
2021/10/22 00:04:25;;;;;;;1.60;1.50;;;;;;;21.24;67.81;97278.16;5018201;28;20684;-63
2021/10/22 00:06:51;;;;;;;1.70;1.60;;;;;;;21.02;67.62;97240.94;5018452;28;20233;-62
2021/10/22 00:09:18;;;;;;;1.70;1.60;;;;;;;21.08;67.64;97247.91;5016914;28;20312;-63
2021/10/22 00:11:45;;;;;;;1.70;1.60;;;;;;;20.93;67.68;97227.88;5019615;28;20675;-62
2021/10/22 00:14:11;;;;;;;1.93;1.70;;;;;;;20.32;67.82;97150.44;5016099;28;20249;-62
2021/10/22 00:16:38;;;;;;;1.60;1.50;;;;;;;20.91;67.80;97238.88;5012316;28;20214;-62
2021/10/22 00:19:05;;;;;;;1.70;1.60;;;;;;;21.23;68.12;97300.28;5020316;28;20225;-64
2021/10/22 00:21:31;;;;;;;1.73;1.63;;;;;;;20.13;67.53;97115.00;5016755;28;20867;-65
2021/10/22 00:23:58;;;;;;;2.60;1.60;;;;;;;21.23;67.64;97307.94;5018232;28;20245;-65
2021/10/22 00:26:25;;;;;;;1.70;1.60;;;;;;;21.14;67.84;97288.97;5017102;28;20281;-65
2021/10/22 00:28:51;;;;;;;1.80;1.60;;;;;;;19.99;67.57;97098.44;5018132;28;20304;-65
2021/10/22 00:31:18;;;;;;;1.73;1.63;;;;;;;21.24;68.00;97304.59;5013598;28;20750;-62
2021/10/22 00:33:45;;;;;;;1.90;1.57;;;;;;;21.24;67.51;97296.03;5018727;28;20211;-62
2021/10/22 00:36:11;;;;;;;2.10;1.70;;;;;;;21.25;67.49;97295.22;5018786;28;20280;-66
2021/10/22 00:38:38;;;;;;;1.57;1.47;;;;;;;21.25;68.11;97301.19;5016979;28;20684;-67
2021/10/22 00:41:15;;;;;;;2.40;1.60;;;;;;;21.25;67.76;97305.44;5018222;28;20264;-65
2021/10/22 00:43:41;;;;;;;1.60;1.50;;;;;;;21.13;67.54;97284.66;5017073;28;20836;-65
2021/10/22 00:46:08;;;;;;;1.67;1.57;;;;;;;21.27;67.67;97298.69;5015861;28;20206;-65
2021/10/22 00:48:36;;;;;;;3.93;1.70;;;;;;;21.27;67.52;97301.25;5021903;28;20244;-66
2021/10/22 00:51:02;;;;;;;1.73;1.60;;;;;;;21.25;67.86;97301.19;5015909;28;20318;-65
2021/10/22 00:53:29;;;;;;;1.67;1.57;;;;;;;21.27;67.62;97297.00;5012397;28;20237;-65
2021/10/22 00:55:56;;;;;;;2.50;1.67;;;;;;;21.28;67.63;97300.41;5020378;28;20237;-65
2021/10/22 00:58:22;;;;;;;1.67;1.40;;;;;;;21.29;67.73;97294.47;5020601;28;20237;-65
2021/10/22 01:00:49;;;;;;;2.67;1.77;;;;;;;21.30;67.40;97303.88;5010887;28;20334;-63
2021/10/22 01:03:16;;;;;;;2.10;1.60;;;;;;;21.05;67.81;97260.63;5019892;28;20197;-64
2021/10/22 01:05:43;;;;;;;2.23;1.57;;;;;;;21.17;67.46;97295.00;5012420;28;20249;-63
2021/10/22 01:08:10;;;;;;;1.63;1.53;;;;;;;21.19;67.76;97306.16;5010321;28;20205;-62
2021/10/22 01:10:38;;;;;;;1.50;1.37;;;;;;;21.11;67.39;97289.72;5018129;28;20302;-63
2021/10/22 01:13:05;;;;;;;1.40;1.30;;;;;;;21.33;67.37;97329.50;5022451;28;20249;-64
2021/10/22 01:15:32;;;;;;;2.20;1.70;;;;;;;21.01;67.65;97295.41;5025701;28;20663;-63
2021/10/22 01:18:00;;;;;;;2.17;1.57;;;;;;;21.23;67.48;97312.22;5026286;28;20293;-64
2021/10/22 01:20:28;;;;;;;1.63;1.53;;;;;;;21.21;67.61;97316.41;5025874;28;20197;-63
2021/10/22 01:22:54;;;;;;;2.37;1.43;;;;;;;21.32;67.56;97333.75;5022079;28;20209;-63
2021/10/22 01:25:24;;;;;;;1.57;1.47;;;;;;;20.62;67.57;97216.78;5021110;28;20284;-63
2021/10/22 01:27:51;;;;;;;1.53;1.40;;;;;;;21.33;67.51;97330.41;5025169;28;20210;-63
2021/10/22 01:30:18;;;;;;;1.73;1.50;;;;;;;21.33;67.55;97338.06;5020052;28;20268;-65
2021/10/22 01:32:45;;;;;;;1.70;1.60;;;;;;;21.35;67.32;97351.72;5023834;28;20237;-63
2021/10/22 01:35:12;;;;;;;1.60;1.50;;;;;;;21.28;67.30;97347.28;5018995;28;20260;-65
2021/10/22 01:37:39;;;;;;;1.90;1.50;;;;;;;20.61;67.49;97228.72;5025605;28;20213;-61
2021/10/22 01:40:07;;;;;;;1.57;1.43;;;;;;;20.55;67.43;97233.63;5013262;28;20265;-65
2021/10/22 01:42:33;;;;;;;1.57;1.47;;;;;;;21.15;67.43;97322.22;5020991;28;20232;-63
2021/10/22 01:45:00;;;;;;;1.80;1.60;;;;;;;21.36;67.36;97361.16;5024735;28;20289;-62
2021/10/22 01:47:27;;;;;;;1.40;1.30;;;;;;;21.03;67.19;97313.34;5022506;28;20648;-64
2021/10/22 01:49:53;;;;;;;2.10;1.43;;;;;;;21.36;67.39;97371.38;5026319;28;20260;-63
2021/10/22 01:52:20;;;;;;;1.80;1.57;;;;;;;21.36;67.15;97383.28;5019232;28;20289;-63
2021/10/22 01:54:47;;;;;;;1.50;1.40;;;;;;;21.35;67.40;97369.63;5024557;28;20290;-64
2021/10/22 01:57:14;;;;;;;1.30;1.20;;;;;;;21.36;67.36;97384.16;5014316;28;20294;-63
2021/10/22 01:59:40;;;;;;;1.40;1.30;;;;;;;21.35;66.99;97384.97;5020670;28;20259;-62
2021/10/22 02:02:07;;;;;;;1.60;1.40;;;;;;;21.28;67.19;97369.41;5018183;28;20647;-65
2021/10/22 02:04:34;;;;;;;1.50;1.40;;;;;;;21.36;67.38;97380.72;5023360;28;20237;-62
2021/10/22 02:07:01;;;;;;;1.83;1.60;;;;;;;21.36;67.28;97389.28;5018582;28;20284;-62
2021/10/22 02:09:27;;;;;;;1.77;1.63;;;;;;;21.36;67.65;97386.72;5014640;28;20256;-62
2021/10/22 02:11:54;;;;;;;1.53;1.37;;;;;;;21.36;67.23;97396.06;5022801;28;20305;-63
2021/10/22 02:14:21;;;;;;;1.97;1.70;;;;;;;21.24;67.31;97377.81;5023190;28;20244;-62
2021/10/22 02:16:48;;;;;;;1.40;1.30;;;;;;;21.03;67.33;97339.78;5018547;28;20244;-62
2021/10/22 02:19:14;;;;;;;1.67;1.57;;;;;;;21.28;67.24;97388.19;5020835;28;20304;-63
2021/10/22 02:21:41;;;;;;;1.53;1.30;;;;;;;21.31;67.23;97398.50;5019320;28;20240;-63
2021/10/22 02:24:08;;;;;;;1.80;1.50;;;;;;;21.27;67.08;97386.47;5013176;28;20286;-62
2021/10/22 02:26:34;;;;;;;1.50;1.40;;;;;;;21.31;67.10;97395.94;5021674;28;20248;-62
2021/10/22 02:29:01;;;;;;;1.50;1.40;;;;;;;21.27;67.17;97393.25;5023588;28;20781;-64
2021/10/22 02:31:27;;;;;;;1.60;1.50;;;;;;;21.33;67.26;97398.53;5014689;28;20261;-62
2021/10/22 02:33:54;;;;;;;1.27;1.13;;;;;;;21.11;67.17;97358.72;5022854;28;20209;-63
2021/10/22 02:36:21;;;;;;;1.40;1.30;;;;;;;21.27;67.41;97383.91;5017653;28;20250;-63
2021/10/22 02:38:48;;;;;;;1.50;1.40;;;;;;;21.36;67.56;97407.16;5023886;28;20276;-63
2021/10/22 02:41:15;;;;;;;1.60;1.50;;;;;;;21.36;67.47;97407.16;5014006;28;20353;-62
2021/10/22 02:43:41;;;;;;;1.87;1.50;;;;;;;21.35;67.00;97409.69;5019433;28;20313;-62
2021/10/22 02:46:08;;;;;;;1.60;1.50;;;;;;;21.35;67.30;97409.69;5014942;28;20640;-63
2021/10/22 02:48:35;;;;;;;1.40;1.30;;;;;;;21.36;67.16;97414.84;5018832;28;20308;-63
2021/10/22 02:51:02;;;;;;;1.40;1.30;;;;;;;21.08;67.39;97360.34;5022937;28;20336;-62
2021/10/22 02:53:28;;;;;;;1.30;1.20;;;;;;;21.30;67.13;97417.22;5023824;28;20229;-65
2021/10/22 02:55:55;;;;;;;1.40;1.30;;;;;;;21.36;67.26;97424.19;5018069;28;20634;-61
2021/10/22 02:58:22;;;;;;;1.40;1.30;;;;;;;21.12;67.54;97380.91;5025541;28;20222;-63
2021/10/22 03:00:48;;;;;;;1.83;1.40;;;;;;;21.36;67.22;97430.19;5018060;28;20198;-62
2021/10/22 03:03:15;;;;;;;1.77;1.40;;;;;;;21.06;67.44;97383.28;5018800;28;20245;-63
2021/10/22 03:05:42;;;;;;;1.53;1.33;;;;;;;21.34;67.36;97436.03;5019981;28;20252;-63
2021/10/22 03:08:08;;;;;;;1.40;1.30;;;;;;;21.20;67.42;97412.66;5019484;28;20284;-63
2021/10/22 03:10:35;;;;;;;1.17;1.10;;;;;;;20.48;67.40;97287.00;5016696;28;20238;-62
2021/10/22 03:13:01;;;;;;;2.07;1.50;;;;;;;21.24;67.45;97411.06;5014733;28;20260;-63
2021/10/22 03:15:28;;;;;;;1.40;1.30;;;;;;;20.99;67.67;97377.97;5020515;28;20244;-64
2021/10/22 03:17:55;;;;;;;1.40;1.30;;;;;;;21.31;67.58;97426.59;5016456;28;20248;-63
2021/10/22 03:20:22;;;;;;;1.50;1.40;;;;;;;21.31;67.29;97420.63;5022082;28;20260;-63
2021/10/22 03:22:48;;;;;;;1.27;1.17;;;;;;;21.31;67.92;97434.28;5021513;28;20825;-63
2021/10/22 03:25:15;;;;;;;1.43;1.23;;;;;;;21.30;67.66;97426.56;5019696;28;20637;-63
2021/10/22 03:27:42;;;;;;;1.30;1.20;;;;;;;20.44;67.34;97291.16;5024313;28;20288;-63
2021/10/22 03:30:10;;;;;;;1.37;1.27;;;;;;;21.13;67.57;97417.53;5014649;28;20638;-63
2021/10/22 03:32:36;;;;;;;1.67;1.40;;;;;;;21.31;67.55;97446.19;5024151;28;20312;-63
2021/10/22 03:35:04;;;;;;;1.40;1.30;;;;;;;21.31;67.47;97452.16;5019225;28;20285;-63
2021/10/22 03:37:30;;;;;;;1.40;1.30;;;;;;;21.31;67.55;97456.41;5024076;28;20209;-62
2021/10/22 03:39:57;;;;;;;1.60;1.40;;;;;;;20.98;67.28;97402.63;5012009;28;20755;-63
2021/10/22 03:42:24;;;;;;;1.37;1.27;;;;;;;21.30;67.34;97458.13;5016835;28;20293;-63
2021/10/22 03:44:50;;;;;;;1.40;1.30;;;;;;;21.31;67.64;97469.19;5018721;28;20237;-63
2021/10/22 03:47:17;;;;;;;1.10;1.10;;;;;;;21.30;67.09;97465.78;5018377;28;20379;-63
2021/10/22 03:49:44;;;;;;;1.37;1.27;;;;;;;21.29;67.82;97455.50;5013353;28;20662;-63
2021/10/22 03:52:11;;;;;;;1.53;1.20;;;;;;;21.29;68.06;97466.59;5020760;28;20313;-63
2021/10/22 03:54:37;;;;;;;1.40;1.30;;;;;;;20.93;67.60;97398.19;5023810;28;20240;-63
2021/10/22 03:57:04;;;;;;;1.10;1.10;;;;;;;21.30;67.50;97473.44;5023413;28;20256;-64
2021/10/22 03:59:30;;;;;;;1.37;1.27;;;;;;;21.18;67.85;97452.66;5024555;28;20256;-64
2021/10/22 04:01:57;;;;;;;1.23;1.13;;;;;;;21.15;67.43;97452.56;5015294;28;20285;-63
2021/10/22 04:04:29;;;;;;;1.30;1.20;;;;;;;21.22;67.71;97458.69;5018224;28;20208;-63
2021/10/22 04:06:56;;;;;;;1.50;1.37;;;;;;;21.22;67.62;97451.03;5018197;28;20210;-63
2021/10/22 04:09:26;;;;;;;1.07;1.07;;;;;;;21.29;67.71;97469.16;4998573;28;20568;-63
2021/10/22 04:11:53;;;;;;;1.70;1.30;;;;;;;20.44;67.45;97323.47;5022753;28;20272;-62
2021/10/22 04:14:20;;;;;;;1.53;1.43;;;;;;;21.25;67.57;97449.44;5011936;28;20237;-63
2021/10/22 04:16:46;;;;;;;3.53;1.30;;;;;;;21.30;67.79;97465.78;5021745;28;20206;-62
2021/10/22 04:19:13;;;;;;;1.40;1.30;;;;;;;21.30;67.27;97460.66;5024008;28;20232;-67
2021/10/22 04:21:40;;;;;;;1.30;1.20;;;;;;;21.31;67.44;97475.19;5019120;28;20238;-66
2021/10/22 04:24:06;;;;;;;2.13;1.40;;;;;;;20.39;67.68;97320.78;5021825;28;20268;-68
2021/10/22 04:26:33;;;;;;;1.20;1.10;;;;;;;21.31;67.55;97477.72;5019956;28;20280;-65
2021/10/22 04:28:59;;;;;;;1.30;1.20;;;;;;;21.30;67.65;97470.91;5023247;28;20575;-67
2021/10/22 04:31:26;;;;;;;1.30;1.20;;;;;;;21.30;67.58;97464.91;5022311;28;20267;-65
2021/10/22 04:33:53;;;;;;;1.37;1.10;;;;;;;21.30;67.68;97462.34;5022582;28;20214;-67
2021/10/22 04:36:19;;;;;;;1.20;1.10;;;;;;;21.28;67.60;97454.63;5024311;28;20233;-67
2021/10/22 04:41:31;;;;;;;1.47;1.37;;;;;;;21.00;67.82;97411.22;5021724;28;20633;-67
2021/10/22 04:43:57;;;;;;;1.20;1.10;;;;;;;21.29;68.03;97455.50;5027399;28;20205;-67
2021/10/22 04:46:24;;;;;;;1.50;1.40;;;;;;;21.29;67.92;97458.91;5022351;28;20632;-66
2021/10/22 04:48:51;;;;;;;1.30;1.20;;;;;;;21.29;67.61;97456.38;5017696;28;20253;-64
2021/10/22 04:51:17;;;;;;;2.63;1.30;;;;;;;21.26;67.70;97452.88;5014447;28;20262;-66
2021/10/22 04:53:44;;;;;;;1.50;1.40;;;;;;;21.30;67.75;97463.22;5016574;28;20683;-66
2021/10/22 04:56:10;;;;;;;1.30;1.20;;;;;;;21.25;67.86;97458.78;5016476;28;20208;-67
2021/10/22 04:58:38;;;;;;;1.50;1.17;;;;;;;21.30;67.45;97468.34;5016759;28;20283;-66
2021/10/22 05:01:04;;;;;;;1.47;1.20;;;;;;;21.22;67.47;97462.13;5021049;28;20212;-67
2021/10/22 05:03:31;;;;;;;2.93;1.83;;;;;;;21.30;64.79;97475.13;5022821;28;20205;-66
2021/10/22 05:05:58;;;;;;;4.07;1.73;;;;;;;21.18;62.44;97459.44;5019937;28;20271;-67
2021/10/22 05:08:25;;;;;;;4.27;1.80;;;;;;;21.28;60.49;97475.09;5022652;28;20260;-63
2021/10/22 05:10:51;;;;;;;4.50;1.87;;;;;;;21.26;58.41;97476.72;5020119;28;20229;-67
2021/10/22 05:13:18;;;;;;;5.13;1.93;;;;;;;21.25;57.85;97475.00;5029050;28;20209;-62
2021/10/22 05:15:44;;;;;;;7.17;2.23;;;;;;;21.25;56.60;97482.66;5020014;28;20233;-66
2021/10/22 05:18:11;;;;;;;6.03;2.70;;;;;;;21.24;55.63;97488.63;5022330;28;20292;-66
2021/10/22 05:20:38;;;;;;;4.50;2.17;;;;;;;21.23;54.71;97489.41;5023789;28;20289;-67
2021/10/22 05:23:08;;;;;;;7.43;2.40;;;;;;;21.18;54.31;97477.31;5023318;28;20198;-67
2021/10/22 05:25:34;;;;;;;5.47;2.27;;;;;;;21.20;53.63;97489.31;5027557;28;20624;-65
2021/10/22 05:28:01;;;;;;;5.50;2.20;;;;;;;21.17;52.85;97489.22;5022742;28;20293;-68
2021/10/22 05:30:28;;;;;;;4.03;2.23;;;;;;;21.15;51.98;97488.34;5026921;28;20240;-67
2021/10/22 05:32:54;;;;;;;4.03;2.20;;;;;;;21.03;51.72;97467.53;5025589;28;20340;-67
2021/10/22 05:35:21;;;;;;;4.80;2.00;;;;;;;21.10;51.48;97476.22;5023826;28;20233;-67
2021/10/22 05:37:48;;;;;;;6.70;2.40;;;;;;;21.08;52.22;97476.19;5028054;28;20320;-67
2021/10/22 05:40:14;;;;;;;8.03;2.70;;;;;;;20.78;51.73;97431.78;5077548;22;20319;-62
2021/10/22 05:42:41;;;;;;;5.53;2.20;;;;;;;21.10;51.51;97484.75;5056729;28;20598;-63
2021/10/22 05:45:08;;;;;;;7.53;2.40;;;;;;;21.10;51.33;97482.22;5061136;28;20279;-63
2021/10/22 05:47:35;;;;;;;6.00;2.40;;;;;;;21.10;50.88;97481.34;5068154;28;20238;-62
2021/10/22 05:50:04;;;;;;;7.83;2.50;;;;;;;21.08;50.77;97494.06;5062119;28;20308;-62
2021/10/22 05:52:31;;;;;;;8.00;2.47;;;;;;;21.08;50.96;97493.22;5064899;28;20332;-62
2021/10/22 05:54:57;;;;;;;5.97;2.83;;;;;;;21.06;51.16;97495.72;5057798;28;20291;-62
2021/10/22 05:57:24;;;;;;;6.53;2.33;;;;;;;21.06;51.98;97493.16;5058181;28;20318;-62
2021/10/22 05:59:50;;;;;;;6.90;2.67;;;;;;;21.06;52.59;97498.28;5055590;28;20868;-62
2021/10/22 06:02:17;;;;;;;8.10;2.47;;;;;;;21.06;53.25;97503.38;5056246;28;20232;-62
2021/10/22 06:04:45;;;;;;;4.83;2.30;;;;;;;21.06;53.72;97499.97;5061994;28;20200;-62
2021/10/22 06:07:11;;;;;;;5.10;2.30;;;;;;;21.06;54.52;97498.28;5062574;28;20264;-62
2021/10/22 06:09:38;;;;;;;6.70;2.47;;;;;;;21.07;55.03;97517.88;5060859;28;20252;-62
2021/10/22 06:12:05;;;;;;;5.73;2.17;;;;;;;21.07;53.80;97500.00;5065590;28;20228;-62
2021/10/22 06:14:32;;;;;;;5.80;2.50;;;;;;;21.05;51.41;97516.97;5060426;28;20214;-62
2021/10/22 06:16:58;;;;;;;8.47;3.23;;;;;;;21.05;51.30;97524.63;5060592;28;20228;-62
2021/10/22 06:19:28;;;;;;;6.40;2.20;;;;;;;21.04;51.98;97529.69;5065321;28;20983;-62
2021/10/22 06:22:09;;;;;;;6.93;2.57;;;;;;;21.03;52.86;97531.41;5055667;28;20201;-62
2021/10/22 06:24:36;;;;;;;6.43;2.60;;;;;;;21.03;53.74;97533.97;5061339;28;20220;-61
2021/10/22 06:27:03;;;;;;;5.80;2.33;;;;;;;21.04;54.05;97529.69;5060078;28;20236;-61
2021/10/22 06:29:31;;;;;;;8.37;2.93;;;;;;;21.01;50.64;97516.81;5044262;28;20224;-61
2021/10/22 06:31:57;;;;;;;15.00;3.20;;;;;;;21.01;50.98;97527.91;5043262;28;20221;-60
2021/10/22 06:34:26;;;;;;;8.60;2.70;;;;;;;21.00;51.50;97528.75;5049572;28;20240;-61
2021/10/22 06:36:53;;;;;;;7.93;3.00;;;;;;;21.00;52.29;97527.88;5050593;28;20713;-62
2021/10/22 06:39:20;;;;;;;5.63;2.57;;;;;;;21.00;53.07;97532.97;5042484;28;20314;-62
2021/10/22 06:41:47;;;;;;;6.50;2.37;;;;;;;21.01;53.58;97534.72;5043883;28;20223;-62
2021/10/22 06:44:14;;;;;;;3.67;2.30;;;;;;;21.00;53.93;97535.53;5045429;28;20265;-61
2021/10/22 06:46:41;;;;;;;5.97;2.67;;;;;;;21.01;54.06;97548.34;5041476;28;20696;-61
2021/10/22 06:49:08;;;;;;;6.13;2.50;;;;;;;20.28;54.94;97419.09;5044391;28;20732;-61
2021/10/22 06:51:34;;;;;;;8.90;2.60;;;;;;;21.02;55.25;97552.63;5044825;28;20290;-62
2021/10/22 06:54:01;;;;;;;7.73;2.87;;;;;;;21.04;55.72;97557.78;5055359;28;20239;-61
2021/10/22 06:56:27;;;;;;;6.33;2.37;;;;;;;21.03;56.32;97569.72;5055923;28;20629;-62
2021/10/22 06:58:54;;;;;;;3.53;2.10;;;;;;;21.05;56.63;97574.88;5059215;28;20677;-62
2021/10/22 07:01:21;;;;;;;5.73;2.47;;;;;;;21.06;56.80;97574.06;5059544;28;20283;-62
2021/10/22 07:03:48;;;;;;;3.80;2.10;;;;;;;21.07;57.16;97570.66;5055865;28;20482;-61
2021/10/22 07:08:59;;;;;;;3.77;2.20;;;;;;;21.07;57.77;97570.66;5056135;28;20748;-62
2021/10/22 07:11:26;;;;;;;3.83;1.77;;;;;;;21.08;58.05;97580.09;5057931;28;20634;-62
2021/10/22 07:13:54;;;;;;;4.70;2.37;;;;;;;21.07;57.86;97586.88;5052325;28;20747;-62
2021/10/22 07:16:22;;;;;;;3.43;1.77;;;;;;;21.06;57.87;97590.25;5051430;28;20205;-62
2021/10/22 07:18:50;;;;;;;4.67;2.40;;;;;;;21.07;56.58;97591.13;5059471;28;20230;-62
2021/10/22 07:21:17;;;;;;;4.83;2.40;;;;;;;21.07;56.43;97591.13;5055056;28;20283;-61
2021/10/22 07:23:46;;;;;;;3.67;2.20;;;;;;;21.07;56.88;97596.22;5058193;28;20776;-62
2021/10/22 07:26:13;;;;;;;6.17;2.50;;;;;;;21.09;57.11;97602.25;5053170;28;20299;-62
2021/10/22 07:28:40;;;;;;;5.63;2.20;;;;;;;21.08;57.29;97600.53;5063166;28;20315;-62
2021/10/22 07:31:10;;;;;;;4.83;2.30;;;;;;;21.08;57.38;97606.50;5063013;28;20636;-62
2021/10/22 07:33:38;;;;;;;2.63;1.83;;;;;;;21.09;57.66;97615.03;5060802;28;20223;-62
2021/10/22 07:36:14;;;;;;;7.00;2.30;;;;;;;21.09;57.85;97621.03;5063180;28;20287;-63
2021/10/22 07:38:44;;;;;;;4.73;2.10;;;;;;;21.08;58.19;97624.38;5056090;28;20991;-63
2021/10/22 07:41:14;;;;;;;4.40;2.20;;;;;;;21.10;58.23;97627.88;5053889;28;20316;-64
2021/10/22 07:43:41;;;;;;;4.17;2.10;;;;;;;21.10;58.27;97638.09;5051637;28;20228;-63
2021/10/22 07:46:08;;;;;;;7.07;2.40;;;;;;;21.12;58.80;97630.47;5055893;28;20254;-63
2021/10/22 07:48:34;;;;;;;4.60;1.93;;;;;;;20.12;58.40;97464.44;5049616;28;20609;-63
2021/10/22 07:51:01;;;;;;;4.37;2.00;;;;;;;21.12;58.91;97641.56;5054581;28;20292;-63
2021/10/22 07:53:28;;;;;;;2.77;1.80;;;;;;;21.13;58.88;97645.84;5057050;28;20258;-63
2021/10/22 07:55:55;;;;;;;2.10;1.63;;;;;;;21.14;59.09;97651.84;5055707;28;20690;-62
2021/10/22 07:58:21;;;;;;;3.70;2.00;;;;;;;21.14;58.96;97649.28;5059422;28;20298;-62
2021/10/22 08:00:48;;;;;;;4.33;2.03;;;;;;;21.14;59.22;97651.84;5054554;28;20665;-63
2021/10/22 08:03:14;;;;;;;2.73;1.60;;;;;;;21.14;58.62;97651.84;5058656;28;20209;-62
2021/10/22 08:05:41;;;;;;;3.87;1.80;;;;;;;21.15;59.14;97653.56;5064430;28;20206;-62
2021/10/22 08:08:08;;;;;;;5.10;2.00;;;;;;;21.14;59.08;97655.25;5064184;28;20208;-63
2021/10/22 08:10:40;;;;;;;3.23;1.80;;;;;;;21.14;59.33;97660.34;5062141;28;20256;-62
2021/10/22 08:13:10;;;;;;;4.30;1.90;;;;;;;21.15;59.43;97657.00;5062576;28;20594;-62
2021/10/22 08:15:42;;;;;;;4.67;1.80;;;;;;;21.16;59.96;97663.84;5064957;28;20212;-63
2021/10/22 08:18:09;;;;;;;2.90;1.73;;;;;;;21.17;59.49;97669.84;5064159;28;20200;-63
2021/10/22 08:20:37;;;;;;;3.50;1.77;;;;;;;21.17;59.55;97674.94;5059269;28;20246;-63
2021/10/22 08:23:04;;;;;;;2.63;1.70;;;;;;;21.17;59.81;97673.25;5059783;28;20634;-63
2021/10/22 08:25:31;;;;;;;2.63;1.67;;;;;;;21.17;59.54;97665.56;5061651;28;20292;-63
2021/10/22 08:27:58;;;;;;;2.33;1.57;;;;;;;21.18;60.06;97674.13;5065857;28;20274;-60
2021/10/22 08:30:27;;;;;;;6.33;1.50;;;;;;;21.18;59.66;97664.78;5066074;28;20394;-61
2021/10/22 08:32:55;;;;;;;2.10;1.50;;;;;;;21.18;59.85;97667.34;5065134;28;20388;-64
2021/10/22 08:35:25;;;;;;;1.60;1.50;;;;;;;21.19;60.17;97673.28;5064641;28;20219;-63
2021/10/22 08:37:52;;;;;;;3.13;1.50;;;;;;;21.19;59.89;97669.06;5061379;28;20235;-62
2021/10/22 08:40:20;;;;;;;2.60;1.80;;;;;;;21.20;60.07;97667.38;5060880;28;20314;-63
2021/10/22 08:42:48;;;;;;;2.53;1.60;;;;;;;21.10;60.04;97657.66;5064023;28;20467;-63
2021/10/22 08:45:15;;;;;;;1.90;1.60;;;;;;;21.20;60.21;97677.59;5063810;28;20682;-61
2021/10/22 08:47:42;;;;;;;2.30;1.70;;;;;;;21.19;60.08;97688.63;5064718;28;20204;-63
2021/10/22 08:50:14;;;;;;;3.27;1.73;;;;;;;21.13;60.24;97673.97;5063952;28;20263;-63
2021/10/22 08:52:40;;;;;;;1.97;1.67;;;;;;;21.19;60.27;97681.84;5060193;28;20311;-63
2021/10/22 08:55:11;;;;;;;2.23;1.50;;;;;;;20.20;60.61;97519.19;5063940;28;20243;-62
2021/10/22 08:57:42;;;;;;;2.37;1.50;;;;;;;20.19;60.13;97525.97;5062783;28;20704;-63
2021/10/22 09:00:13;;;;;;;1.67;1.40;;;;;;;21.20;60.37;97692.94;5064087;28;20722;-63
2021/10/22 09:02:40;;;;;;;2.53;1.80;;;;;;;21.19;60.44;97697.16;5063137;28;20228;-64
2021/10/22 09:05:11;;;;;;;2.67;1.70;;;;;;;21.20;60.51;97688.69;5061422;28;20207;-62
2021/10/22 09:07:42;;;;;;;2.57;1.67;;;;;;;21.21;60.74;97703.22;5052770;28;20232;-63
2021/10/22 09:10:16;;;;;;;2.33;1.70;;;;;;;21.20;60.57;97696.34;5053768;28;20666;-62
2021/10/22 09:12:44;;;;;;;2.20;1.60;;;;;;;21.21;60.62;97700.66;5058886;28;20311;-63
2021/10/22 09:15:12;;;;;;;1.50;1.40;;;;;;;21.21;60.64;97700.66;5058216;28;20705;-63
2021/10/22 09:17:44;;;;;;;2.20;1.70;;;;;;;20.18;60.70;97529.34;5059427;28;20230;-63
2021/10/22 09:20:12;;;;;;;3.30;1.37;;;;;;;21.22;60.56;97694.72;5060053;28;20228;-63
2021/10/22 09:22:40;;;;;;;2.63;1.60;;;;;;;21.23;60.89;97696.44;5055919;28;20734;-63
2021/10/22 09:25:10;;;;;;;2.20;1.50;;;;;;;21.23;60.88;97701.56;5060224;28;20357;-63
2021/10/22 09:27:53;;;;;;;2.33;1.60;;;;;;;21.24;60.87;97711.00;5062827;28;20235;-63
2021/10/22 09:30:38;;;;;;;4.17;1.83;;;;;;;21.23;61.03;97711.78;5060569;28;21140;-63
2021/10/22 09:33:11;;;;;;;1.97;1.40;;;;;;;21.23;61.21;97714.34;5059974;28;20224;-63
2021/10/22 09:35:43;;;;;;;2.77;1.30;;;;;;;21.24;61.11;97717.78;5059884;28;20653;-63
2021/10/22 09:38:17;;;;;;;1.90;1.37;;;;;;;21.23;60.96;97709.22;5050655;28;20292;-63
2021/10/22 09:40:46;;;;;;;1.63;1.30;;;;;;;21.23;60.96;97719.44;5058201;28;20520;-64
2021/10/22 09:43:20;;;;;;;1.97;1.30;;;;;;;21.24;61.02;97720.31;5060465;28;20658;-63
2021/10/22 09:45:48;;;;;;;2.07;1.40;;;;;;;21.23;60.91;97716.03;5056665;28;20200;-63
2021/10/22 09:48:29;;;;;;;2.27;1.40;;;;;;;21.23;61.14;97716.03;5056968;28;20210;-64
2021/10/22 09:50:58;;;;;;;2.17;1.50;;;;;;;21.24;61.21;97721.22;5060795;28;20197;-63
2021/10/22 09:53:27;;;;;;;2.57;1.57;;;;;;;21.24;61.30;97718.66;5063297;28;20285;-64
2021/10/22 09:56:06;;;;;;;2.33;1.10;;;;;;;21.24;61.22;97718.66;5062728;28;20204;-64
2021/10/22 09:58:34;;;;;;;1.50;1.37;;;;;;;21.25;61.23;97727.16;5059635;28;20289;-63
2021/10/22 10:01:08;;;;;;;2.57;1.37;;;;;;;21.25;61.38;97719.50;5061234;28;20232;-63
2021/10/22 10:03:37;;;;;;;2.10;1.50;;;;;;;21.24;61.42;97721.22;5058999;28;20204;-63
2021/10/22 10:06:07;;;;;;;2.03;1.47;;;;;;;21.24;61.20;97723.75;5063059;28;20979;-63
2021/10/22 10:08:35;;;;;;;2.33;1.60;;;;;;;21.24;61.40;97723.75;5061512;28;20764;-63
2021/10/22 10:11:03;;;;;;;1.50;1.40;;;;;;;21.25;61.47;97714.38;5059207;28;20292;-63
2021/10/22 10:13:30;;;;;;;2.03;1.47;;;;;;;21.25;61.34;97724.63;5062807;28;20630;-63
2021/10/22 10:15:57;;;;;;;1.40;1.30;;;;;;;21.25;61.43;97717.81;5062220;28;20196;-63
2021/10/22 10:18:26;;;;;;;1.60;1.43;;;;;;;21.11;60.92;97701.16;5062349;28;20295;-64
2021/10/22 10:20:53;;;;;;;1.90;1.50;;;;;;;21.24;61.36;97723.75;5060237;28;20729;-62
2021/10/22 10:23:19;;;;;;;7.60;2.07;;;;;;;20.97;56.99;97689.63;5058795;28;20276;-63
2021/10/22 10:25:46;;;;;;;7.80;2.87;;;;;;;21.19;54.09;97717.63;5047696;28;20228;-63
2021/10/22 10:28:12;;;;;;;6.97;2.90;;;;;;;21.20;51.99;97715.94;5057803;28;20196;-63
2021/10/22 10:30:40;;;;;;;10.17;3.07;;;;;;;20.97;52.39;97684.50;5056251;28;20315;-62
2021/10/22 10:33:09;;;;;;;7.03;2.57;;;;;;;21.18;52.91;97712.47;5054074;28;20282;-62
2021/10/22 10:35:41;;;;;;;9.77;3.00;;;;;;;21.17;53.92;97709.03;5051101;28;20300;-62
2021/10/22 10:38:13;;;;;;;7.73;3.20;;;;;;;21.17;54.49;97708.16;5047767;28;20232;-63
2021/10/22 10:40:40;;;;;;;6.43;2.40;;;;;;;20.16;54.87;97536.06;5052706;28;20475;-63
2021/10/22 10:43:19;;;;;;;7.37;2.57;;;;;;;21.18;55.70;97697.13;5052786;28;20240;-63
2021/10/22 10:45:46;;;;;;;7.47;2.80;;;;;;;21.18;56.21;97702.22;5054404;28;20228;-63
2021/10/22 10:48:20;;;;;;;6.10;2.77;;;;;;;21.18;56.19;97699.69;5054501;28;20734;-63
2021/10/22 10:50:58;;;;;;;5.70;2.37;;;;;;;21.18;56.42;97709.91;5049167;28;20216;-63
2021/10/22 10:53:38;;;;;;;7.33;3.00;;;;;;;21.18;56.98;97710.78;5051970;28;20251;-62
2021/10/22 10:56:07;;;;;;;4.50;2.63;;;;;;;21.19;57.03;97706.50;5059025;28;20204;-63
2021/10/22 10:58:44;;;;;;;7.43;2.80;;;;;;;21.19;57.09;97699.72;5058005;28;20192;-63
2021/10/22 11:01:20;;;;;;;6.23;2.37;;;;;;;21.19;57.56;97697.16;5054417;28;20203;-64
2021/10/22 11:03:47;;;;;;;5.33;2.17;;;;;;;21.18;57.87;97695.44;5053475;28;20196;-63
2021/10/22 11:06:34;;;;;;;3.80;1.80;;;;;;;21.20;57.79;97690.38;5051308;28;20207;-62
2021/10/22 11:09:01;;;;;;;4.27;2.20;;;;;;;21.19;57.97;97684.41;5051984;28;20307;-62
2021/10/22 11:11:32;;;;;;;5.33;2.20;;;;;;;21.20;58.26;97680.16;5058445;28;20299;-62
2021/10/22 11:14:02;;;;;;;5.53;2.50;;;;;;;21.19;58.39;97686.94;5056172;28;20327;-61
2021/10/22 11:16:39;;;;;;;5.33;2.20;;;;;;;21.20;58.37;97687.84;5049363;28;20901;-63
2021/10/22 11:19:09;;;;;;;8.07;2.53;;;;;;;21.19;58.61;97680.97;5053935;28;20227;-63
2021/10/22 11:21:45;;;;;;;4.47;2.20;;;;;;;21.20;58.53;97681.00;5053091;28;20296;-62
2021/10/22 11:24:17;;;;;;;3.27;2.23;;;;;;;21.20;58.91;97675.91;5054549;28;20283;-63
2021/10/22 11:26:45;;;;;;;3.10;1.90;;;;;;;21.21;58.80;97669.09;5053276;28;20247;-62
2021/10/22 11:29:19;;;;;;;5.33;1.90;;;;;;;21.21;58.99;97675.09;5053428;28;20293;-63
2021/10/22 11:31:51;;;;;;;5.67;2.23;;;;;;;21.21;59.01;97670.00;5052297;28;20235;-62
2021/10/22 11:34:22;;;;;;;5.20;2.20;;;;;;;21.03;59.15;97642.94;5058563;28;20249;-62
2021/10/22 11:36:53;;;;;;;4.97;2.13;;;;;;;21.22;59.29;97670.84;5052832;28;20939;-62
2021/10/22 11:39:24;;;;;;;2.53;1.73;;;;;;;21.21;59.33;97666.56;5172857;22;20386;-65
2021/10/22 11:42:10;;;;;;;4.30;2.17;;;;;;;20.21;59.46;97501.38;5061581;28;20287;-65
2021/10/22 11:44:38;;;;;;;4.73;2.07;;;;;;;21.22;59.70;97673.38;5064404;28;20203;-65